sensor_id;sensor_type;location;lat;lon;timestamp;temperature;humidity
15717;DHT22;7960;50.908;4.204;2022-09-02T00:02:14;19.00;95.90
15717;DHT22;7960;50.908;4.204;2022-09-02T00:04:42;19.00;96.00
15717;DHT22;7960;50.908;4.204;2022-09-02T00:07:09;19.30;96.00
15717;DHT22;7960;50.908;4.204;2022-09-02T00:09:36;19.10;96.10
15717;DHT22;7960;50.908;4.204;2022-09-02T00:12:06;19.00;96.30
15717;DHT22;7960;50.908;4.204;2022-09-02T00:14:36;18.80;96.50
15717;DHT22;7960;50.908;4.204;2022-09-02T00:17:04;18.90;96.80
15717;DHT22;7960;50.908;4.204;2022-09-02T00:19:31;19.00;96.80
15717;DHT22;7960;50.908;4.204;2022-09-02T00:21:59;19.20;96.80
15717;DHT22;7960;50.908;4.204;2022-09-02T00:24:26;19.50;96.50
15717;DHT22;7960;50.908;4.204;2022-09-02T00:26:53;19.70;96.20
15717;DHT22;7960;50.908;4.204;2022-09-02T00:29:20;19.70;96.10
15717;DHT22;7960;50.908;4.204;2022-09-02T00:31:49;19.70;96.20
15717;DHT22;7960;50.908;4.204;2022-09-02T00:34:16;19.80;95.90
15717;DHT22;7960;50.908;4.204;2022-09-02T00:36:43;19.60;95.80
15717;DHT22;7960;50.908;4.204;2022-09-02T00:39:10;19.60;96.10
15717;DHT22;7960;50.908;4.204;2022-09-02T00:41:38;19.60;96.40
15717;DHT22;7960;50.908;4.204;2022-09-02T00:44:07;19.30;96.00
15717;DHT22;7960;50.908;4.204;2022-09-02T00:46:34;18.90;96.50
15717;DHT22;7960;50.908;4.204;2022-09-02T00:49:05;18.90;96.70
15717;DHT22;7960;50.908;4.204;2022-09-02T00:51:38;19.10;96.80
15717;DHT22;7960;50.908;4.204;2022-09-02T00:54:06;19.10;96.70
15717;DHT22;7960;50.908;4.204;2022-09-02T00:56:35;19.10;96.90
15717;DHT22;7960;50.908;4.204;2022-09-02T00:59:03;18.90;97.00
15717;DHT22;7960;50.908;4.204;2022-09-02T01:01:30;18.90;97.30
15717;DHT22;7960;50.908;4.204;2022-09-02T01:03:57;18.80;97.30
15717;DHT22;7960;50.908;4.204;2022-09-02T01:06:27;18.70;97.70
15717;DHT22;7960;50.908;4.204;2022-09-02T01:09:02;18.60;97.60
15717;DHT22;7960;50.908;4.204;2022-09-02T01:11:36;18.70;97.80
15717;DHT22;7960;50.908;4.204;2022-09-02T01:14:04;18.60;97.70
15717;DHT22;7960;50.908;4.204;2022-09-02T01:16:36;18.60;98.00
15717;DHT22;7960;50.908;4.204;2022-09-02T01:19:11;18.70;98.20
15717;DHT22;7960;50.908;4.204;2022-09-02T01:21:46;18.80;98.10
15717;DHT22;7960;50.908;4.204;2022-09-02T01:24:13;18.80;98.10
15717;DHT22;7960;50.908;4.204;2022-09-02T01:26:40;18.80;98.00
15717;DHT22;7960;50.908;4.204;2022-09-02T01:29:07;18.60;98.30
15717;DHT22;7960;50.908;4.204;2022-09-02T01:31:34;18.50;98.30
15717;DHT22;7960;50.908;4.204;2022-09-02T01:34:01;18.20;98.50
15717;DHT22;7960;50.908;4.204;2022-09-02T01:36:31;18.30;98.80
15717;DHT22;7960;50.908;4.204;2022-09-02T01:38:59;18.30;98.70
15717;DHT22;7960;50.908;4.204;2022-09-02T01:41:26;18.10;98.90
15717;DHT22;7960;50.908;4.204;2022-09-02T01:43:53;18.10;99.00
15717;DHT22;7960;50.908;4.204;2022-09-02T01:46:20;18.00;99.10
15717;DHT22;7960;50.908;4.204;2022-09-02T01:48:48;17.90;99.80
15717;DHT22;7960;50.908;4.204;2022-09-02T01:51:16;17.90;99.70
15717;DHT22;7960;50.908;4.204;2022-09-02T01:53:43;17.80;99.60
15717;DHT22;7960;50.908;4.204;2022-09-02T01:56:11;17.80;99.90
15717;DHT22;7960;50.908;4.204;2022-09-02T01:58:38;17.90;99.90
15717;DHT22;7960;50.908;4.204;2022-09-02T02:01:05;17.70;99.80
15717;DHT22;7960;50.908;4.204;2022-09-02T02:03:32;17.70;99.90
15717;DHT22;7960;50.908;4.204;2022-09-02T02:06:00;17.70;99.90
15717;DHT22;7960;50.908;4.204;2022-09-02T02:08:27;17.70;99.90
15717;DHT22;7960;50.908;4.204;2022-09-02T02:10:54;17.60;99.90
15717;DHT22;7960;50.908;4.204;2022-09-02T02:13:23;17.70;99.90
15717;DHT22;7960;50.908;4.204;2022-09-02T02:15:50;17.80;99.90
15717;DHT22;7960;50.908;4.204;2022-09-02T02:18:17;18.00;99.90
15717;DHT22;7960;50.908;4.204;2022-09-02T02:20:44;18.10;99.90
15717;DHT22;7960;50.908;4.204;2022-09-02T02:23:11;18.20;99.90
15717;DHT22;7960;50.908;4.204;2022-09-02T02:25:38;18.00;99.90
15717;DHT22;7960;50.908;4.204;2022-09-02T02:28:05;18.00;99.90
15717;DHT22;7960;50.908;4.204;2022-09-02T02:30:33;17.70;99.90
15717;DHT22;7960;50.908;4.204;2022-09-02T02:33:00;17.50;99.90
15717;DHT22;7960;50.908;4.204;2022-09-02T02:35:27;17.70;99.90
15717;DHT22;7960;50.908;4.204;2022-09-02T02:37:54;17.80;99.90
15717;DHT22;7960;50.908;4.204;2022-09-02T02:40:22;17.90;99.90
15717;DHT22;7960;50.908;4.204;2022-09-02T02:42:50;18.00;99.90
15717;DHT22;7960;50.908;4.204;2022-09-02T02:45:19;17.90;99.90
15717;DHT22;7960;50.908;4.204;2022-09-02T02:47:47;17.70;99.90
15717;DHT22;7960;50.908;4.204;2022-09-02T02:50:17;17.60;99.90
15717;DHT22;7960;50.908;4.204;2022-09-02T02:52:45;17.60;99.90
15717;DHT22;7960;50.908;4.204;2022-09-02T02:55:14;17.70;99.90
15717;DHT22;7960;50.908;4.204;2022-09-02T02:57:42;17.70;99.90
15717;DHT22;7960;50.908;4.204;2022-09-02T03:00:11;17.60;99.90
15717;DHT22;7960;50.908;4.204;2022-09-02T03:02:39;17.50;99.90
15717;DHT22;7960;50.908;4.204;2022-09-02T03:05:09;17.60;99.90
15717;DHT22;7960;50.908;4.204;2022-09-02T03:07:36;17.70;99.90
15717;DHT22;7960;50.908;4.204;2022-09-02T03:10:05;17.70;99.90
15717;DHT22;7960;50.908;4.204;2022-09-02T03:12:32;17.80;99.90
15717;DHT22;7960;50.908;4.204;2022-09-02T03:14:59;18.00;99.90
15717;DHT22;7960;50.908;4.204;2022-09-02T03:17:26;18.10;99.90
15717;DHT22;7960;50.908;4.204;2022-09-02T03:19:53;18.00;99.90
15717;DHT22;7960;50.908;4.204;2022-09-02T03:22:26;18.00;99.90
15717;DHT22;7960;50.908;4.204;2022-09-02T03:24:53;18.10;99.90
15717;DHT22;7960;50.908;4.204;2022-09-02T03:27:19;18.00;99.90
15717;DHT22;7960;50.908;4.204;2022-09-02T03:29:46;17.90;99.90
15717;DHT22;7960;50.908;4.204;2022-09-02T03:32:13;18.00;99.90
15717;DHT22;7960;50.908;4.204;2022-09-02T03:34:40;18.10;99.90
15717;DHT22;7960;50.908;4.204;2022-09-02T03:37:07;18.10;99.90
15717;DHT22;7960;50.908;4.204;2022-09-02T03:39:36;18.00;99.90
15717;DHT22;7960;50.908;4.204;2022-09-02T03:42:04;18.10;99.90
15717;DHT22;7960;50.908;4.204;2022-09-02T03:44:31;18.20;99.90
15717;DHT22;7960;50.908;4.204;2022-09-02T03:46:59;18.30;99.90
15717;DHT22;7960;50.908;4.204;2022-09-02T03:49:26;18.20;99.90
15717;DHT22;7960;50.908;4.204;2022-09-02T03:51:53;18.20;99.90
15717;DHT22;7960;50.908;4.204;2022-09-02T03:54:20;18.00;99.90
15717;DHT22;7960;50.908;4.204;2022-09-02T03:56:49;18.00;99.90
15717;DHT22;7960;50.908;4.204;2022-09-02T03:59:16;18.00;99.90
15717;DHT22;7960;50.908;4.204;2022-09-02T04:01:43;17.80;99.90
15717;DHT22;7960;50.908;4.204;2022-09-02T04:04:10;17.90;99.90
15717;DHT22;7960;50.908;4.204;2022-09-02T04:06:38;17.70;99.90
15717;DHT22;7960;50.908;4.204;2022-09-02T04:09:05;17.70;99.90
15717;DHT22;7960;50.908;4.204;2022-09-02T04:11:32;17.70;99.90
15717;DHT22;7960;50.908;4.204;2022-09-02T04:14:01;17.50;99.90
15717;DHT22;7960;50.908;4.204;2022-09-02T04:16:28;17.50;99.90
15717;DHT22;7960;50.908;4.204;2022-09-02T04:18:56;17.60;99.90
15717;DHT22;7960;50.908;4.204;2022-09-02T04:21:23;17.60;99.90
15717;DHT22;7960;50.908;4.204;2022-09-02T04:23:51;17.40;99.90
15717;DHT22;7960;50.908;4.204;2022-09-02T04:26:18;17.50;99.90
15717;DHT22;7960;50.908;4.204;2022-09-02T04:28:46;17.60;99.90
15717;DHT22;7960;50.908;4.204;2022-09-02T04:31:17;17.60;99.90
15717;DHT22;7960;50.908;4.204;2022-09-02T04:33:44;17.60;99.90
15717;DHT22;7960;50.908;4.204;2022-09-02T04:36:14;17.30;99.90
15717;DHT22;7960;50.908;4.204;2022-09-02T04:38:41;17.30;99.90
15717;DHT22;7960;50.908;4.204;2022-09-02T04:41:10;17.10;99.90
15717;DHT22;7960;50.908;4.204;2022-09-02T04:43:37;17.00;99.90
15717;DHT22;7960;50.908;4.204;2022-09-02T04:46:05;17.10;99.90
15717;DHT22;7960;50.908;4.204;2022-09-02T04:48:35;17.20;99.90
15717;DHT22;7960;50.908;4.204;2022-09-02T04:51:06;17.20;99.90
15717;DHT22;7960;50.908;4.204;2022-09-02T04:53:34;17.10;99.90
15717;DHT22;7960;50.908;4.204;2022-09-02T04:56:03;17.20;99.90
15717;DHT22;7960;50.908;4.204;2022-09-02T04:58:30;17.10;99.90
15717;DHT22;7960;50.908;4.204;2022-09-02T05:00:57;17.00;99.90
15717;DHT22;7960;50.908;4.204;2022-09-02T05:03:24;17.10;99.90
15717;DHT22;7960;50.908;4.204;2022-09-02T05:06:02;17.20;99.90
15717;DHT22;7960;50.908;4.204;2022-09-02T05:08:30;17.00;99.90
15717;DHT22;7960;50.908;4.204;2022-09-02T05:10:57;16.80;99.90
15717;DHT22;7960;50.908;4.204;2022-09-02T05:13:24;17.00;99.90
15717;DHT22;7960;50.908;4.204;2022-09-02T05:15:51;16.90;99.90
15717;DHT22;7960;50.908;4.204;2022-09-02T05:18:19;16.90;99.90
15717;DHT22;7960;50.908;4.204;2022-09-02T05:20:46;16.90;99.90
15717;DHT22;7960;50.908;4.204;2022-09-02T05:23:14;16.80;99.90
15717;DHT22;7960;50.908;4.204;2022-09-02T05:25:41;16.90;99.90
15717;DHT22;7960;50.908;4.204;2022-09-02T05:28:10;17.00;99.90
15717;DHT22;7960;50.908;4.204;2022-09-02T05:30:38;16.80;99.90
15717;DHT22;7960;50.908;4.204;2022-09-02T05:33:06;16.80;99.90
15717;DHT22;7960;50.908;4.204;2022-09-02T05:35:33;16.80;99.90
15717;DHT22;7960;50.908;4.204;2022-09-02T05:38:00;16.80;99.90
15717;DHT22;7960;50.908;4.204;2022-09-02T05:40:28;16.90;99.90
15717;DHT22;7960;50.908;4.204;2022-09-02T05:42:55;16.80;99.90
15717;DHT22;7960;50.908;4.204;2022-09-02T05:45:22;16.90;99.90
15717;DHT22;7960;50.908;4.204;2022-09-02T05:47:51;16.90;99.90
15717;DHT22;7960;50.908;4.204;2022-09-02T05:50:18;17.00;99.90
15717;DHT22;7960;50.908;4.204;2022-09-02T05:52:49;17.10;99.90
15717;DHT22;7960;50.908;4.204;2022-09-02T05:55:16;17.20;99.90
15717;DHT22;7960;50.908;4.204;2022-09-02T05:57:45;17.20;99.90
15717;DHT22;7960;50.908;4.204;2022-09-02T06:00:13;17.20;99.90
15717;DHT22;7960;50.908;4.204;2022-09-02T06:02:41;17.20;99.90
15717;DHT22;7960;50.908;4.204;2022-09-02T06:05:09;17.10;99.90
15717;DHT22;7960;50.908;4.204;2022-09-02T06:07:38;17.10;99.90
15717;DHT22;7960;50.908;4.204;2022-09-02T06:10:05;17.20;99.90
15717;DHT22;7960;50.908;4.204;2022-09-02T06:12:32;17.20;99.90
15717;DHT22;7960;50.908;4.204;2022-09-02T06:17:28;17.50;99.90
15717;DHT22;7960;50.908;4.204;2022-09-02T06:19:55;17.60;99.90
15717;DHT22;7960;50.908;4.204;2022-09-02T06:22:22;17.60;99.90
15717;DHT22;7960;50.908;4.204;2022-09-02T06:24:49;17.80;99.90
15717;DHT22;7960;50.908;4.204;2022-09-02T06:27:17;17.90;99.90
15717;DHT22;7960;50.908;4.204;2022-09-02T06:29:44;17.90;99.90
15717;DHT22;7960;50.908;4.204;2022-09-02T06:32:12;18.00;99.90
15717;DHT22;7960;50.908;4.204;2022-09-02T06:34:40;18.10;99.90
15717;DHT22;7960;50.908;4.204;2022-09-02T06:37:07;18.20;99.90
15717;DHT22;7960;50.908;4.204;2022-09-02T06:39:34;18.30;99.90
15717;DHT22;7960;50.908;4.204;2022-09-02T06:42:02;18.30;99.90
15717;DHT22;7960;50.908;4.204;2022-09-02T06:44:30;18.40;99.90
15717;DHT22;7960;50.908;4.204;2022-09-02T06:46:59;18.50;99.90
15717;DHT22;7960;50.908;4.204;2022-09-02T06:49:28;18.60;99.90
15717;DHT22;7960;50.908;4.204;2022-09-02T06:51:55;18.70;99.90
15717;DHT22;7960;50.908;4.204;2022-09-02T06:54:24;18.90;99.90
15717;DHT22;7960;50.908;4.204;2022-09-02T06:56:52;19.10;99.90
15717;DHT22;7960;50.908;4.204;2022-09-02T06:59:20;19.10;99.90
15717;DHT22;7960;50.908;4.204;2022-09-02T07:01:48;19.20;99.90
15717;DHT22;7960;50.908;4.204;2022-09-02T07:04:15;19.40;99.90
15717;DHT22;7960;50.908;4.204;2022-09-02T07:07:03;19.50;99.90
15717;DHT22;7960;50.908;4.204;2022-09-02T07:09:30;19.50;99.90
15717;DHT22;7960;50.908;4.204;2022-09-02T07:11:59;19.70;99.90
15717;DHT22;7960;50.908;4.204;2022-09-02T07:14:27;19.90;99.90
15717;DHT22;7960;50.908;4.204;2022-09-02T07:16:55;20.00;99.90
15717;DHT22;7960;50.908;4.204;2022-09-02T07:19:24;20.20;99.90
15717;DHT22;7960;50.908;4.204;2022-09-02T07:21:51;20.20;99.90
15717;DHT22;7960;50.908;4.204;2022-09-02T07:24:20;20.20;99.90
15717;DHT22;7960;50.908;4.204;2022-09-02T07:26:47;20.30;99.90
15717;DHT22;7960;50.908;4.204;2022-09-02T07:29:14;20.30;99.90
15717;DHT22;7960;50.908;4.204;2022-09-02T07:31:44;20.40;99.90
15717;DHT22;7960;50.908;4.204;2022-09-02T07:34:11;20.20;99.90
15717;DHT22;7960;50.908;4.204;2022-09-02T07:36:39;20.30;99.90
15717;DHT22;7960;50.908;4.204;2022-09-02T07:39:08;20.30;99.90
15717;DHT22;7960;50.908;4.204;2022-09-02T07:41:38;20.40;99.90
15717;DHT22;7960;50.908;4.204;2022-09-02T07:44:06;20.40;99.90
15717;DHT22;7960;50.908;4.204;2022-09-02T07:46:33;20.50;99.90
15717;DHT22;7960;50.908;4.204;2022-09-02T07:49:03;20.60;99.90
15717;DHT22;7960;50.908;4.204;2022-09-02T07:51:32;20.60;99.90
15717;DHT22;7960;50.908;4.204;2022-09-02T07:54:00;20.80;99.90
15717;DHT22;7960;50.908;4.204;2022-09-02T07:56:27;20.90;99.90
15717;DHT22;7960;50.908;4.204;2022-09-02T07:58:56;20.80;99.90
15717;DHT22;7960;50.908;4.204;2022-09-02T08:01:23;21.00;99.90
15717;DHT22;7960;50.908;4.204;2022-09-02T08:03:50;21.00;99.90
15717;DHT22;7960;50.908;4.204;2022-09-02T08:06:18;21.10;99.90
15717;DHT22;7960;50.908;4.204;2022-09-02T08:08:48;21.10;99.90
15717;DHT22;7960;50.908;4.204;2022-09-02T08:11:15;21.10;99.90
15717;DHT22;7960;50.908;4.204;2022-09-02T08:13:42;21.30;99.90
15717;DHT22;7960;50.908;4.204;2022-09-02T08:16:11;21.30;99.90
15717;DHT22;7960;50.908;4.204;2022-09-02T08:18:38;21.20;99.90
15717;DHT22;7960;50.908;4.204;2022-09-02T08:21:05;21.40;99.90
15717;DHT22;7960;50.908;4.204;2022-09-02T08:23:32;21.50;99.90
15717;DHT22;7960;50.908;4.204;2022-09-02T08:25:59;21.60;99.90
15717;DHT22;7960;50.908;4.204;2022-09-02T08:28:27;21.60;99.90
15717;DHT22;7960;50.908;4.204;2022-09-02T08:30:54;21.90;99.90
15717;DHT22;7960;50.908;4.204;2022-09-02T08:33:25;21.90;99.90
15717;DHT22;7960;50.908;4.204;2022-09-02T08:35:53;21.90;99.90
15717;DHT22;7960;50.908;4.204;2022-09-02T08:38:21;21.90;99.90
15717;DHT22;7960;50.908;4.204;2022-09-02T08:40:48;22.00;99.90
15717;DHT22;7960;50.908;4.204;2022-09-02T08:43:27;22.20;99.90
15717;DHT22;7960;50.908;4.204;2022-09-02T08:45:59;22.40;99.90
15717;DHT22;7960;50.908;4.204;2022-09-02T08:48:35;22.20;99.90
15717;DHT22;7960;50.908;4.204;2022-09-02T08:51:06;22.40;99.90
15717;DHT22;7960;50.908;4.204;2022-09-02T08:53:38;22.50;99.90
15717;DHT22;7960;50.908;4.204;2022-09-02T08:56:08;22.50;99.90
15717;DHT22;7960;50.908;4.204;2022-09-02T08:58:40;22.70;99.90
15717;DHT22;7960;50.908;4.204;2022-09-02T09:01:14;22.90;99.90
15717;DHT22;7960;50.908;4.204;2022-09-02T09:04:02;23.00;99.90
15717;DHT22;7960;50.908;4.204;2022-09-02T09:06:34;23.30;99.90
15717;DHT22;7960;50.908;4.204;2022-09-02T09:09:08;23.50;99.90
15717;DHT22;7960;50.908;4.204;2022-09-02T09:11:40;23.50;99.90
15717;DHT22;7960;50.908;4.204;2022-09-02T09:14:17;23.60;99.90
15717;DHT22;7960;50.908;4.204;2022-09-02T09:16:52;23.60;99.80
15717;DHT22;7960;50.908;4.204;2022-09-02T09:19:32;23.80;99.60
15717;DHT22;7960;50.908;4.204;2022-09-02T09:22:02;23.90;99.50
15717;DHT22;7960;50.908;4.204;2022-09-02T09:24:34;23.80;99.20
15717;DHT22;7960;50.908;4.204;2022-09-02T09:27:03;23.70;99.30
15717;DHT22;7960;50.908;4.204;2022-09-02T09:29:32;23.70;99.40
15717;DHT22;7960;50.908;4.204;2022-09-02T09:32:02;23.90;99.30
15717;DHT22;7960;50.908;4.204;2022-09-02T09:34:54;24.20;99.20
15717;DHT22;7960;50.908;4.204;2022-09-02T09:37:31;24.30;99.00
15717;DHT22;7960;50.908;4.204;2022-09-02T09:39:59;24.50;98.40
15717;DHT22;7960;50.908;4.204;2022-09-02T09:42:31;24.50;98.70
15717;DHT22;7960;50.908;4.204;2022-09-02T09:44:58;24.80;98.30
15717;DHT22;7960;50.908;4.204;2022-09-02T09:47:25;25.10;98.00
15717;DHT22;7960;50.908;4.204;2022-09-02T09:50:12;25.00;97.90
15717;DHT22;7960;50.908;4.204;2022-09-02T09:52:41;25.00;97.60
15717;DHT22;7960;50.908;4.204;2022-09-02T09:55:14;25.10;97.60
15717;DHT22;7960;50.908;4.204;2022-09-02T09:57:43;25.10;97.40
15717;DHT22;7960;50.908;4.204;2022-09-02T10:00:19;25.20;97.40
15717;DHT22;7960;50.908;4.204;2022-09-02T10:02:48;25.20;97.10
15717;DHT22;7960;50.908;4.204;2022-09-02T10:05:27;25.30;97.10
15717;DHT22;7960;50.908;4.204;2022-09-02T10:07:59;25.20;97.20
15717;DHT22;7960;50.908;4.204;2022-09-02T10:10:28;25.30;97.00
15717;DHT22;7960;50.908;4.204;2022-09-02T10:12:59;25.50;96.70
15717;DHT22;7960;50.908;4.204;2022-09-02T10:15:33;25.60;96.50
15717;DHT22;7960;50.908;4.204;2022-09-02T10:18:11;25.70;96.40
15717;DHT22;7960;50.908;4.204;2022-09-02T10:20:50;25.90;96.10
15717;DHT22;7960;50.908;4.204;2022-09-02T10:23:30;25.80;96.10
15717;DHT22;7960;50.908;4.204;2022-09-02T10:26:05;26.30;96.20
15717;DHT22;7960;50.908;4.204;2022-09-02T10:31:34;26.40;95.00
15717;DHT22;7960;50.908;4.204;2022-09-02T10:34:12;26.10;94.80
15717;DHT22;7960;50.908;4.204;2022-09-02T10:36:53;25.90;95.40
15717;DHT22;7960;50.908;4.204;2022-09-02T10:39:38;26.20;95.40
15717;DHT22;7960;50.908;4.204;2022-09-02T10:42:17;26.80;95.20
15717;DHT22;7960;50.908;4.204;2022-09-02T10:45:03;27.20;94.60
15717;DHT22;7960;50.908;4.204;2022-09-02T10:47:35;27.40;94.20
15717;DHT22;7960;50.908;4.204;2022-09-02T10:50:12;27.00;93.70
15717;DHT22;7960;50.908;4.204;2022-09-02T10:55:43;27.10;94.10
15717;DHT22;7960;50.908;4.204;2022-09-02T10:58:15;27.40;94.00
15717;DHT22;7960;50.908;4.204;2022-09-02T11:00:47;27.50;93.40
15717;DHT22;7960;50.908;4.204;2022-09-02T11:03:20;27.40;93.20
15717;DHT22;7960;50.908;4.204;2022-09-02T11:05:51;27.40;93.20
15717;DHT22;7960;50.908;4.204;2022-09-02T11:08:25;27.60;92.80
15717;DHT22;7960;50.908;4.204;2022-09-02T11:10:59;27.70;92.80
15717;DHT22;7960;50.908;4.204;2022-09-02T11:13:32;27.50;92.30
15717;DHT22;7960;50.908;4.204;2022-09-02T11:16:05;27.60;92.60
15717;DHT22;7960;50.908;4.204;2022-09-02T11:18:38;27.80;92.40
15717;DHT22;7960;50.908;4.204;2022-09-02T12:19:26;28.40;82.80
15717;DHT22;7960;50.908;4.204;2022-09-02T12:25:41;28.30;83.60
15717;DHT22;7960;50.908;4.204;2022-09-02T12:28:15;28.00;83.10
15717;DHT22;7960;50.908;4.204;2022-09-02T12:31:12;27.60;84.50
15717;DHT22;7960;50.908;4.204;2022-09-02T12:33:41;27.50;83.40
15717;DHT22;7960;50.908;4.204;2022-09-02T12:36:45;27.50;82.70
15717;DHT22;7960;50.908;4.204;2022-09-02T12:39:49;28.10;83.10
15717;DHT22;7960;50.908;4.204;2022-09-02T12:42:23;28.30;82.30
15717;DHT22;7960;50.908;4.204;2022-09-02T12:45:03;28.50;81.00
15717;DHT22;7960;50.908;4.204;2022-09-02T12:47:42;28.80;80.70
15717;DHT22;7960;50.908;4.204;2022-09-02T12:50:24;28.90;79.70
15717;DHT22;7960;50.908;4.204;2022-09-02T12:53:06;28.50;79.20
15717;DHT22;7960;50.908;4.204;2022-09-02T12:55:33;28.40;79.80
15717;DHT22;7960;50.908;4.204;2022-09-02T12:58:08;28.50;79.40
15717;DHT22;7960;50.908;4.204;2022-09-02T13:00:51;29.00;79.10
15717;DHT22;7960;50.908;4.204;2022-09-02T13:06:18;29.00;77.70
15717;DHT22;7960;50.908;4.204;2022-09-02T13:12:40;29.30;77.50
15717;DHT22;7960;50.908;4.204;2022-09-02T13:15:33;30.00;76.40
15717;DHT22;7960;50.908;4.204;2022-09-02T13:18:34;30.10;74.60
15717;DHT22;7960;50.908;4.204;2022-09-02T13:21:29;30.10;74.00
15717;DHT22;7960;50.908;4.204;2022-09-02T13:30:07;29.70;73.70
15717;DHT22;7960;50.908;4.204;2022-09-02T13:32:36;29.20;74.30
15717;DHT22;7960;50.908;4.204;2022-09-02T13:35:07;29.60;75.00
15717;DHT22;7960;50.908;4.204;2022-09-02T13:37:42;29.90;74.30
15717;DHT22;7960;50.908;4.204;2022-09-02T13:40:17;30.30;73.30
15717;DHT22;7960;50.908;4.204;2022-09-02T13:42:48;30.00;73.30
15717;DHT22;7960;50.908;4.204;2022-09-02T13:45:17;30.20;72.20
15717;DHT22;7960;50.908;4.204;2022-09-02T13:47:46;30.50;72.20
15717;DHT22;7960;50.908;4.204;2022-09-02T13:50:18;30.80;71.90
15717;DHT22;7960;50.908;4.204;2022-09-02T13:52:48;30.50;71.60
15717;DHT22;7960;50.908;4.204;2022-09-02T13:55:17;30.00;72.10
15717;DHT22;7960;50.908;4.204;2022-09-02T13:57:55;30.50;72.00
15717;DHT22;7960;50.908;4.204;2022-09-02T14:00:30;30.50;71.20
15717;DHT22;7960;50.908;4.204;2022-09-02T14:03:02;30.60;71.50
15717;DHT22;7960;50.908;4.204;2022-09-02T14:05:32;31.00;70.40
15717;DHT22;7960;50.908;4.204;2022-09-02T14:08:03;31.00;69.60
15717;DHT22;7960;50.908;4.204;2022-09-02T14:10:31;30.60;70.00
15717;DHT22;7960;50.908;4.204;2022-09-02T14:13:01;31.20;69.50
15717;DHT22;7960;50.908;4.204;2022-09-02T14:15:30;31.50;69.70
15717;DHT22;7960;50.908;4.204;2022-09-02T14:18:09;31.60;68.80
15717;DHT22;7960;50.908;4.204;2022-09-02T14:20:38;31.50;68.40
15717;DHT22;7960;50.908;4.204;2022-09-02T14:23:07;31.50;68.40
15717;DHT22;7960;50.908;4.204;2022-09-02T14:25:48;31.80;68.00
15717;DHT22;7960;50.908;4.204;2022-09-02T14:28:18;31.90;66.40
15717;DHT22;7960;50.908;4.204;2022-09-02T14:30:54;31.00;67.80
15717;DHT22;7960;50.908;4.204;2022-09-02T14:39:12;31.80;67.00
15717;DHT22;7960;50.908;4.204;2022-09-02T14:41:44;32.20;66.90
15717;DHT22;7960;50.908;4.204;2022-09-02T14:44:16;32.40;66.30
15717;DHT22;7960;50.908;4.204;2022-09-02T14:46:45;32.20;65.70
15717;DHT22;7960;50.908;4.204;2022-09-02T14:49:19;31.80;65.60
15717;DHT22;7960;50.908;4.204;2022-09-02T14:51:49;31.80;65.40
15717;DHT22;7960;50.908;4.204;2022-09-02T14:54:33;31.70;66.00
15717;DHT22;7960;50.908;4.204;2022-09-02T14:57:01;31.30;65.80
15717;DHT22;7960;50.908;4.204;2022-09-02T14:59:28;30.70;65.70
15717;DHT22;7960;50.908;4.204;2022-09-02T15:01:56;30.40;66.70
15717;DHT22;7960;50.908;4.204;2022-09-02T15:04:24;30.00;66.10
15717;DHT22;7960;50.908;4.204;2022-09-02T15:06:51;29.90;67.10
15717;DHT22;7960;50.908;4.204;2022-09-02T15:09:21;29.90;67.50
15717;DHT22;7960;50.908;4.204;2022-09-02T15:11:52;30.10;67.60
15717;DHT22;7960;50.908;4.204;2022-09-02T15:14:19;30.00;66.60
15717;DHT22;7960;50.908;4.204;2022-09-02T15:16:46;29.80;67.40
15717;DHT22;7960;50.908;4.204;2022-09-02T15:19:13;29.80;67.20
15717;DHT22;7960;50.908;4.204;2022-09-02T15:21:40;29.20;66.80
15717;DHT22;7960;50.908;4.204;2022-09-02T15:24:07;29.30;67.60
15717;DHT22;7960;50.908;4.204;2022-09-02T15:26:34;29.50;67.80
15717;DHT22;7960;50.908;4.204;2022-09-02T15:29:02;29.30;67.60
15717;DHT22;7960;50.908;4.204;2022-09-02T15:31:29;29.00;67.40
15717;DHT22;7960;50.908;4.204;2022-09-02T15:33:58;28.70;68.10
15717;DHT22;7960;50.908;4.204;2022-09-02T15:36:25;28.80;67.50
15717;DHT22;7960;50.908;4.204;2022-09-02T15:38:52;29.00;69.00
15717;DHT22;7960;50.908;4.204;2022-09-02T15:41:21;29.20;69.30
15717;DHT22;7960;50.908;4.204;2022-09-02T15:43:48;29.10;68.20
15717;DHT22;7960;50.908;4.204;2022-09-02T15:46:19;28.90;68.10
15717;DHT22;7960;50.908;4.204;2022-09-02T15:48:47;28.90;68.50
15717;DHT22;7960;50.908;4.204;2022-09-02T15:51:16;29.00;68.40
15717;DHT22;7960;50.908;4.204;2022-09-02T15:53:43;29.00;68.50
15717;DHT22;7960;50.908;4.204;2022-09-02T15:56:17;29.00;68.40
15717;DHT22;7960;50.908;4.204;2022-09-02T15:58:45;29.00;68.20
15717;DHT22;7960;50.908;4.204;2022-09-02T16:01:12;28.90;67.90
15717;DHT22;7960;50.908;4.204;2022-09-02T16:03:41;28.70;69.00
15717;DHT22;7960;50.908;4.204;2022-09-02T16:06:08;28.60;68.90
15717;DHT22;7960;50.908;4.204;2022-09-02T16:08:35;28.60;69.60
15717;DHT22;7960;50.908;4.204;2022-09-02T16:11:04;28.60;69.20
15717;DHT22;7960;50.908;4.204;2022-09-02T16:13:31;28.50;68.80
15717;DHT22;7960;50.908;4.204;2022-09-02T16:16:00;28.50;68.70
15717;DHT22;7960;50.908;4.204;2022-09-02T16:18:27;28.60;68.40
15717;DHT22;7960;50.908;4.204;2022-09-02T16:20:56;28.60;68.50
15717;DHT22;7960;50.908;4.204;2022-09-02T16:23:23;28.60;68.20
15717;DHT22;7960;50.908;4.204;2022-09-02T16:26:10;28.40;68.10
15717;DHT22;7960;50.908;4.204;2022-09-02T16:28:39;28.30;67.10
15717;DHT22;7960;50.908;4.204;2022-09-02T16:31:08;28.20;67.00
15717;DHT22;7960;50.908;4.204;2022-09-02T16:33:36;28.30;67.20
15717;DHT22;7960;50.908;4.204;2022-09-02T16:36:05;28.20;67.20
15717;DHT22;7960;50.908;4.204;2022-09-02T16:38:32;28.20;67.10
15717;DHT22;7960;50.908;4.204;2022-09-02T16:41:00;28.20;67.20
15717;DHT22;7960;50.908;4.204;2022-09-02T16:43:29;28.20;67.20
15717;DHT22;7960;50.908;4.204;2022-09-02T16:45:58;28.20;66.60
15717;DHT22;7960;50.908;4.204;2022-09-02T16:48:29;28.20;66.30
15717;DHT22;7960;50.908;4.204;2022-09-02T16:51:00;28.00;66.60
15717;DHT22;7960;50.908;4.204;2022-09-02T16:53:30;28.00;67.00
15717;DHT22;7960;50.908;4.204;2022-09-02T16:55:57;27.80;67.10
15717;DHT22;7960;50.908;4.204;2022-09-02T16:58:25;27.80;66.90
15717;DHT22;7960;50.908;4.204;2022-09-02T17:00:52;27.80;67.00
15717;DHT22;7960;50.908;4.204;2022-09-02T17:03:19;27.80;67.10
15717;DHT22;7960;50.908;4.204;2022-09-02T17:05:46;27.80;67.40
15717;DHT22;7960;50.908;4.204;2022-09-02T17:08:14;27.70;67.80
15717;DHT22;7960;50.908;4.204;2022-09-02T17:10:43;27.80;68.90
15717;DHT22;7960;50.908;4.204;2022-09-02T17:13:10;27.90;69.00
15717;DHT22;7960;50.908;4.204;2022-09-02T17:15:36;27.50;75.30
15717;DHT22;7960;50.908;4.204;2022-09-02T17:18:06;27.40;77.40
15717;DHT22;7960;50.908;4.204;2022-09-02T17:20:35;27.30;79.20
15717;DHT22;7960;50.908;4.204;2022-09-02T17:23:02;26.90;81.60
15717;DHT22;7960;50.908;4.204;2022-09-02T17:25:29;26.70;83.00
15717;DHT22;7960;50.908;4.204;2022-09-02T17:27:57;27.00;83.90
15717;DHT22;7960;50.908;4.204;2022-09-02T17:30:24;27.00;83.90
15717;DHT22;7960;50.908;4.204;2022-09-02T17:32:51;26.90;84.40